createdAt,value
2018-01-14T00:01:15.564Z,2.33
2018-01-14T00:03:43.127Z,2.42
2018-01-14T00:06:10.782Z,2.23
2018-01-14T00:08:38.312Z,2.38
2018-01-14T00:11:06.198Z,2.29
2018-01-14T00:13:33.724Z,2.25
2018-01-14T00:16:01.281Z,2.23
2018-01-14T00:18:28.831Z,2.35
2018-01-14T00:20:56.378Z,2.27
2018-01-14T00:23:23.993Z,2.25
2018-01-14T00:25:51.594Z,2.26
2018-01-14T00:28:19.125Z,2.23
2018-01-14T00:30:46.659Z,1.98
2018-01-14T00:33:14.377Z,2.21
2018-01-14T00:35:41.956Z,2.13
2018-01-14T00:38:09.504Z,2.09
2018-01-14T00:40:37.073Z,2.10
2018-01-14T00:43:04.592Z,2.08
2018-01-14T00:45:32.521Z,2.18
2018-01-14T00:48:00.045Z,2.16
2018-01-14T00:50:27.593Z,2.12
2018-01-14T00:52:55.205Z,2.03
2018-01-14T00:55:22.757Z,2.00
2018-01-14T00:57:50.276Z,1.89
2018-01-14T01:00:18.186Z,1.94
2018-01-14T01:02:45.742Z,1.98
2018-01-14T01:05:13.255Z,1.82
2018-01-14T01:07:40.800Z,1.99
2018-01-14T01:10:08.350Z,1.90
2018-01-14T01:12:35.892Z,1.82
2018-01-14T01:15:03.441Z,1.91
2018-01-14T01:19:57.842Z,1.79
2018-01-14T01:22:25.373Z,1.78
2018-01-14T01:24:52.961Z,1.78
2018-01-14T01:27:20.517Z,1.82
2018-01-14T01:29:48.036Z,1.69
2018-01-14T01:32:15.576Z,1.76
2018-01-14T01:34:43.180Z,1.72
2018-01-14T01:37:10.712Z,1.73
2018-01-14T01:39:38.228Z,1.69
2018-01-14T01:42:05.827Z,1.74
2018-01-14T01:44:33.357Z,1.69
2018-01-14T01:47:00.895Z,1.72
2018-01-14T01:49:28.407Z,1.75
2018-01-14T01:51:56.031Z,1.71
2018-01-14T01:54:23.557Z,1.77
2018-01-14T01:56:51.103Z,1.70
2018-01-14T01:59:18.644Z,1.73
2018-01-14T02:01:46.221Z,1.65
2018-01-14T02:04:13.736Z,1.62
2018-01-14T02:06:41.262Z,1.61
2018-01-14T02:09:08.833Z,1.68
2018-01-14T02:11:36.483Z,1.75
2018-01-14T02:14:04.487Z,1.66
2018-01-14T02:16:32.034Z,1.61
2018-01-14T02:18:59.556Z,1.78
2018-01-14T02:21:27.132Z,1.64
2018-01-14T02:23:54.648Z,1.64
2018-01-14T02:26:22.179Z,1.67
2018-01-14T02:28:49.757Z,1.55
2018-01-14T02:31:17.396Z,1.70
2018-01-14T02:33:44.934Z,1.50
2018-01-14T02:36:12.548Z,1.53
2018-01-14T02:38:40.149Z,1.64
2018-01-14T02:41:07.659Z,1.67
2018-01-14T02:43:35.185Z,1.60
2018-01-14T02:46:02.762Z,1.61
2018-01-14T02:48:30.308Z,1.55
2018-01-14T02:50:57.935Z,1.69
2018-01-14T02:53:25.493Z,1.60
2018-01-14T02:55:53.036Z,1.62
2018-01-14T02:58:20.818Z,1.54
2018-01-14T03:00:48.361Z,1.49
2018-01-14T03:03:16.126Z,1.71
2018-01-14T03:05:43.648Z,1.62
2018-01-14T03:08:11.198Z,1.65
2018-01-14T03:10:38.816Z,1.73
2018-01-14T03:13:06.378Z,1.77
2018-01-14T03:15:33.931Z,1.71
2018-01-14T03:18:01.508Z,1.70
2018-01-14T03:20:29.023Z,1.69
2018-01-14T03:22:56.636Z,1.57
2018-01-14T03:25:24.156Z,1.61
2018-01-14T03:27:51.700Z,1.59
2018-01-14T03:30:19.269Z,1.60
2018-01-14T03:32:46.873Z,1.51
2018-01-14T03:35:14.448Z,1.42
2018-01-14T03:37:42.136Z,1.46
2018-01-14T03:40:10.136Z,1.44
2018-01-14T03:42:37.695Z,1.47
2018-01-14T03:45:05.266Z,1.52
2018-01-14T03:47:32.856Z,1.47
2018-01-14T03:50:00.433Z,1.40
2018-01-14T03:52:27.957Z,1.44
2018-01-14T03:54:55.899Z,1.29
2018-01-14T03:57:23.429Z,1.36
2018-01-14T03:59:50.972Z,1.35
2018-01-14T04:02:18.543Z,1.40
2018-01-14T04:04:46.105Z,1.43
2018-01-14T04:07:14.025Z,1.43
2018-01-14T04:09:41.600Z,1.40
2018-01-14T04:12:09.166Z,1.45
2018-01-14T04:14:36.740Z,1.35
2018-01-14T04:17:04.292Z,1.46
2018-01-14T04:19:31.902Z,1.38
2018-01-14T04:21:59.524Z,1.37
2018-01-14T04:24:27.069Z,1.35
2018-01-14T04:26:54.633Z,1.40
2018-01-14T04:29:22.581Z,1.35
2018-01-14T04:31:50.196Z,1.31
2018-01-14T04:34:17.753Z,1.18
2018-01-14T04:36:45.314Z,1.39
2018-01-14T04:39:12.893Z,1.39
2018-01-14T04:41:40.506Z,1.56
2018-01-14T04:44:08.439Z,1.49
2018-01-14T04:46:35.970Z,1.52
2018-01-14T04:49:03.536Z,1.42
2018-01-14T04:51:31.109Z,1.38
2018-01-14T04:53:58.701Z,1.26
2018-01-14T04:56:26.289Z,1.27
2018-01-14T04:58:54.031Z,1.36
2018-01-14T05:01:21.557Z,1.54
2018-01-14T05:03:49.085Z,1.61
2018-01-14T05:06:16.831Z,1.49
2018-01-14T05:08:44.372Z,1.58
2018-01-14T05:11:11.887Z,1.42
2018-01-14T05:13:39.485Z,1.40
2018-01-14T05:16:07.043Z,1.38
2018-01-14T05:18:34.608Z,1.41
2018-01-14T05:21:02.379Z,1.48
2018-01-14T05:23:29.907Z,1.52
2018-01-14T05:25:57.648Z,1.43
2018-01-14T05:28:25.186Z,1.36
2018-01-14T05:30:52.695Z,1.43
2018-01-14T05:33:20.233Z,1.25
2018-01-14T05:35:47.825Z,1.24
2018-01-14T05:38:15.367Z,1.36
2018-01-14T05:40:43.075Z,1.40
2018-01-14T05:43:10.627Z,1.37
2018-01-14T05:45:38.197Z,1.40
2018-01-14T05:48:05.753Z,1.46
2018-01-14T05:50:33.315Z,1.34
2018-01-14T05:53:00.869Z,1.24
2018-01-14T05:55:28.408Z,1.40
2018-01-14T05:57:55.945Z,1.50
2018-01-14T06:00:23.511Z,1.27
2018-01-14T06:02:51.044Z,1.25
2018-01-14T06:05:18.928Z,1.58
2018-01-14T06:07:46.791Z,1.32
2018-01-14T06:10:14.302Z,1.22
2018-01-14T06:12:41.855Z,1.14
2018-01-14T06:15:09.392Z,1.50
2018-01-14T06:17:36.974Z,1.22
2018-01-14T06:20:04.606Z,1.22
2018-01-14T06:22:32.124Z,1.18
2018-01-14T06:24:59.660Z,1.36
2018-01-14T06:27:27.208Z,1.22
2018-01-14T06:29:54.838Z,1.46
2018-01-14T06:32:22.444Z,1.49
2018-01-14T06:34:50.031Z,1.25
2018-01-14T06:37:17.585Z,1.40
2018-01-14T06:39:45.129Z,1.23
2018-01-14T06:42:12.668Z,1.16
2018-01-14T06:44:40.238Z,1.16
2018-01-14T06:47:07.765Z,1.34
2018-01-14T06:49:35.333Z,1.25
2018-01-14T06:52:02.890Z,1.13
2018-01-14T06:54:30.820Z,1.34
2018-01-14T06:56:58.455Z,1.22
2018-01-14T06:59:25.976Z,1.29
2018-01-14T07:01:53.515Z,1.12
2018-01-14T07:04:21.086Z,1.18
2018-01-14T07:06:48.633Z,1.12
2018-01-14T07:09:16.185Z,1.30
2018-01-14T07:11:43.697Z,1.22
2018-01-14T07:14:11.339Z,1.29
2018-01-14T07:16:38.876Z,1.18
2018-01-14T07:19:06.445Z,1.31
2018-01-14T07:21:34.044Z,1.11
2018-01-14T07:24:01.630Z,1.03
2018-01-14T07:26:29.142Z,1.07
2018-01-14T07:28:57.074Z,1.15
2018-01-14T07:31:24.619Z,1.14
2018-01-14T07:33:52.135Z,1.06
2018-01-14T07:36:19.709Z,1.20
2018-01-14T07:38:47.249Z,1.16
2018-01-14T07:41:14.787Z,1.20
2018-01-14T07:43:42.324Z,1.23
2018-01-14T07:46:09.926Z,1.06
2018-01-14T07:48:37.453Z,1.30
2018-01-14T07:51:05.037Z,1.18
2018-01-14T07:53:32.553Z,1.21
2018-01-14T07:56:00.120Z,1.13
2018-01-14T07:58:27.712Z,1.13
2018-01-14T08:00:55.251Z,1.23
2018-01-14T08:03:22.779Z,1.32
2018-01-14T08:05:50.320Z,1.02
2018-01-14T08:08:17.884Z,0.97
2018-01-14T08:10:45.394Z,1.33
2018-01-14T08:13:12.969Z,1.14
2018-01-14T08:15:40.664Z,1.22
2018-01-14T08:18:08.258Z,1.11
2018-01-14T08:20:35.813Z,0.96
2018-01-14T08:23:03.372Z,1.14
2018-01-14T08:25:30.935Z,1.01
2018-01-14T08:27:58.547Z,1.04
2018-01-14T08:30:26.090Z,1.15
2018-01-14T08:32:53.641Z,1.20
2018-01-14T08:35:21.236Z,1.32
2018-01-14T08:37:49.052Z,1.02
2018-01-14T08:40:16.572Z,1.12
2018-01-14T08:42:44.148Z,1.38
2018-01-14T08:45:11.664Z,1.30
2018-01-14T08:47:39.487Z,1.42
2018-01-14T08:50:07.040Z,1.25
2018-01-14T08:52:34.585Z,1.41
2018-01-14T08:55:02.242Z,1.24
2018-01-14T08:57:29.936Z,1.40
2018-01-14T08:59:57.480Z,1.24
2018-01-14T09:02:25.099Z,1.19
2018-01-14T09:04:52.649Z,1.50
2018-01-14T09:07:20.167Z,1.43
2018-01-14T09:09:47.776Z,1.34
2018-01-14T09:12:15.317Z,1.42
2018-01-14T09:14:42.863Z,1.13
2018-01-14T09:17:10.822Z,1.11
2018-01-14T09:19:38.366Z,1.13
2018-01-14T09:22:05.896Z,1.70
2018-01-14T09:24:33.480Z,1.59
2018-01-14T09:27:01.008Z,1.53
2018-01-14T09:29:28.572Z,1.39
2018-01-14T09:31:56.146Z,1.39
2018-01-14T09:34:23.731Z,1.53
2018-01-14T09:36:51.410Z,1.54
2018-01-14T09:39:18.981Z,1.52
2018-01-14T09:41:46.535Z,1.61
2018-01-14T09:44:14.047Z,1.59
2018-01-14T09:46:41.587Z,1.34
2018-01-14T09:49:09.286Z,1.27
2018-01-14T09:51:37.062Z,1.23
2018-01-14T09:54:05.562Z,1.46
2018-01-14T09:56:33.145Z,1.32
2018-01-14T09:59:00.716Z,1.34
2018-01-14T10:01:28.293Z,1.36
2018-01-14T10:03:57.087Z,1.56
2018-01-14T10:06:24.664Z,1.52
2018-01-14T10:08:52.232Z,1.60
2018-01-14T10:11:19.772Z,1.45
2018-01-14T10:13:47.353Z,1.76
2018-01-14T10:16:14.882Z,1.50
2018-01-14T10:18:42.395Z,1.66
2018-01-14T10:21:09.959Z,1.69
2018-01-14T10:23:37.509Z,1.96
2018-01-14T10:26:05.467Z,1.69
2018-01-14T10:28:32.992Z,1.84
2018-01-14T10:31:00.572Z,2.08
2018-01-14T10:33:28.177Z,1.97
2018-01-14T10:35:55.776Z,2.04
2018-01-14T10:38:23.292Z,2.16
2018-01-14T10:40:51.718Z,1.93
2018-01-14T10:43:19.318Z,2.34
2018-01-14T10:45:46.843Z,2.10
2018-01-14T10:48:14.385Z,2.19
2018-01-14T10:50:41.906Z,2.39
2018-01-14T10:53:09.464Z,2.08
2018-01-14T10:55:36.999Z,2.25
2018-01-14T10:58:04.609Z,2.33
2018-01-14T11:00:37.732Z,2.13
2018-01-14T11:03:05.615Z,2.48
2018-01-14T11:05:33.156Z,2.40
2018-01-14T11:08:00.704Z,2.48
2018-01-14T11:10:28.402Z,2.35
2018-01-14T11:12:55.972Z,2.64
2018-01-14T11:15:23.506Z,2.70
2018-01-14T11:17:51.034Z,2.50
2018-01-14T11:20:18.601Z,2.47
2018-01-14T11:22:46.154Z,2.54
2018-01-14T11:25:13.732Z,2.88
2018-01-14T11:27:41.301Z,2.58
2018-01-14T11:30:08.987Z,2.77
2018-01-14T11:32:36.530Z,2.87
2018-01-14T11:35:04.080Z,2.72
2018-01-14T11:37:31.657Z,2.85
2018-01-14T11:39:59.229Z,2.68
2018-01-14T11:42:26.744Z,2.54
2018-01-14T11:44:54.296Z,2.68
2018-01-14T11:47:21.870Z,2.82
2018-01-14T11:49:49.470Z,3.17
2018-01-14T11:52:17.007Z,2.61
2018-01-14T11:54:44.612Z,2.87
2018-01-14T11:57:12.186Z,3.04
2018-01-14T11:59:39.872Z,2.89
2018-01-14T12:02:07.480Z,3.13
2018-01-14T12:04:35.009Z,2.89
2018-01-14T12:07:02.796Z,2.92
2018-01-14T12:09:30.376Z,2.89
2018-01-14T12:11:58.033Z,2.97
2018-01-14T12:14:25.580Z,3.34
2018-01-14T12:16:53.106Z,2.88
2018-01-14T12:19:20.681Z,3.18
2018-01-14T12:21:48.336Z,2.97
2018-01-14T12:24:15.893Z,3.20
2018-01-14T12:26:43.435Z,3.04
2018-01-14T12:29:10.979Z,3.27
2018-01-14T12:31:38.528Z,3.49
2018-01-14T12:37:17.756Z,2.95
2018-01-14T12:39:45.376Z,3.09
2018-01-14T12:42:12.938Z,3.13
2018-01-14T12:44:40.467Z,3.18
2018-01-14T12:47:08.067Z,3.15
2018-01-14T12:49:35.579Z,3.10
2018-01-14T12:52:03.129Z,3.05
2018-01-14T12:54:30.696Z,3.10
2018-01-14T12:56:58.301Z,3.10
2018-01-14T12:59:25.839Z,3.02
2018-01-14T13:01:53.594Z,3.16
2018-01-14T13:04:21.118Z,3.20
2018-01-14T13:06:48.676Z,3.03
2018-01-14T13:09:16.195Z,3.28
2018-01-14T13:11:43.764Z,3.15
2018-01-14T13:14:11.303Z,3.14
2018-01-14T13:16:38.922Z,3.23
2018-01-14T13:19:06.467Z,3.19
2018-01-14T13:21:33.991Z,3.40
2018-01-14T13:24:01.566Z,3.15
2018-01-14T13:26:29.092Z,3.06
2018-01-14T13:28:56.691Z,3.05
2018-01-14T13:31:24.232Z,3.23
2018-01-14T13:33:51.780Z,3.12
2018-01-14T13:36:19.332Z,3.18
2018-01-14T13:38:47.027Z,3.16
2018-01-14T13:41:14.590Z,3.21
2018-01-14T13:43:42.113Z,3.34
2018-01-14T13:46:09.687Z,3.11
2018-01-14T13:48:37.231Z,3.35
2018-01-14T13:51:04.890Z,3.23
2018-01-14T13:53:32.462Z,2.98
2018-01-14T13:55:59.990Z,2.99
2018-01-14T13:58:27.550Z,3.04
2018-01-14T14:00:55.106Z,3.11
2018-01-14T14:03:22.663Z,2.99
2018-01-14T14:05:50.267Z,2.87
2018-01-14T14:08:17.827Z,3.04
2018-01-14T14:10:45.438Z,3.06
2018-01-14T14:13:13.667Z,3.01
2018-01-14T14:15:41.339Z,2.90
2018-01-14T14:18:08.898Z,3.01
2018-01-14T14:20:36.441Z,2.95
2018-01-14T14:23:04.006Z,2.88
2018-01-14T14:25:31.527Z,2.94
2018-01-14T14:27:59.120Z,2.91
2018-01-14T14:30:26.778Z,3.02
2018-01-14T14:32:54.324Z,3.13
2018-01-14T14:35:21.870Z,2.96
2018-01-14T14:37:49.612Z,2.88
2018-01-14T14:40:17.183Z,2.97
2018-01-14T14:42:44.704Z,3.05
2018-01-14T14:45:12.450Z,2.90
2018-01-14T14:47:40.180Z,2.72
2018-01-14T14:50:07.888Z,2.65
2018-01-14T14:52:35.536Z,2.61
2018-01-14T14:55:03.093Z,2.55
2018-01-14T14:57:30.668Z,2.45
2018-01-14T14:59:58.236Z,2.40
2018-01-14T15:02:25.779Z,2.30
2018-01-14T15:04:53.300Z,2.28
2018-01-14T15:07:20.884Z,2.18
2018-01-14T15:09:48.469Z,2.17
2018-01-14T15:12:16.131Z,2.09
2018-01-14T15:14:43.830Z,1.89
2018-01-14T15:17:11.397Z,1.85
2018-01-14T15:19:39.580Z,1.79
2018-01-14T15:22:07.135Z,1.62
2018-01-14T15:24:34.869Z,1.50
2018-01-14T15:27:02.704Z,1.54
2018-01-14T15:29:30.219Z,1.47
2018-01-14T15:31:57.778Z,1.57
2018-01-14T15:34:25.317Z,1.52
2018-01-14T15:36:52.963Z,1.52
2018-01-14T15:39:20.592Z,1.37
2018-01-14T15:41:48.126Z,1.32
2018-01-14T15:44:15.642Z,1.14
2018-01-14T15:46:43.242Z,0.97
2018-01-14T15:49:11.215Z,1.20
2018-01-14T15:51:38.858Z,1.33
2018-01-14T15:54:06.376Z,1.15
2018-01-14T15:56:33.983Z,1.01
2018-01-14T15:59:01.664Z,1.11
2018-01-14T16:01:29.329Z,0.96
2018-01-14T16:03:56.879Z,0.91
2018-01-14T16:06:24.416Z,0.77
2018-01-14T16:08:52.173Z,0.54
2018-01-14T16:11:19.747Z,0.65
2018-01-14T16:13:47.293Z,0.69
2018-01-14T16:16:14.819Z,0.52
2018-01-14T16:18:42.387Z,0.57
2018-01-14T16:21:09.933Z,0.53
2018-01-14T16:23:37.862Z,0.41
2018-01-14T16:26:05.475Z,0.51
2018-01-14T16:28:33.016Z,0.20
2018-01-14T16:31:00.623Z,0.08
2018-01-14T16:33:28.192Z,0.21
2018-01-14T16:35:55.862Z,0.45
2018-01-14T16:38:23.411Z,0.46
2018-01-14T16:40:51.004Z,0.58
2018-01-14T16:43:18.553Z,0.18
2018-01-14T16:45:46.132Z,0.20
2018-01-14T16:48:13.671Z,-0.05
2018-01-14T16:50:41.514Z,-0.18
2018-01-14T16:53:09.196Z,-0.19
2018-01-14T16:55:36.788Z,-0.12
2018-01-14T16:58:04.353Z,0.05
2018-01-14T17:00:31.905Z,-0.02
2018-01-14T17:02:59.506Z,-0.26
2018-01-14T17:05:27.108Z,-0.24
2018-01-14T17:07:54.726Z,-0.26
2018-01-14T17:10:22.252Z,-0.19
2018-01-14T17:12:50.060Z,0.01
2018-01-14T17:15:17.637Z,0.07
2018-01-14T17:17:45.197Z,0.10
2018-01-14T17:20:12.763Z,0.17
2018-01-14T17:22:40.476Z,0.04
2018-01-14T17:25:08.044Z,0.07
2018-01-14T17:27:35.625Z,0.02
2018-01-14T17:30:03.163Z,-0.05
2018-01-14T17:32:30.713Z,-0.18
2018-01-14T17:34:58.267Z,-0.18
2018-01-14T17:37:25.775Z,0.20
2018-01-14T17:39:53.335Z,0.12
2018-01-14T17:42:20.855Z,-0.15
2018-01-14T17:44:48.495Z,-0.29
2018-01-14T17:47:16.250Z,-0.12
2018-01-14T17:49:43.827Z,0.09
2018-01-14T17:52:11.354Z,-0.07
2018-01-14T17:54:39.316Z,-0.07
2018-01-14T17:57:06.888Z,0.08
2018-01-14T17:59:34.460Z,-0.01
2018-01-14T18:02:02.023Z,0.08
2018-01-14T18:04:29.579Z,0.05
2018-01-14T18:06:57.552Z,0.11
2018-01-14T18:09:25.073Z,0.13
2018-01-14T18:11:52.616Z,0.06
2018-01-14T18:14:20.423Z,0.08
2018-01-14T18:16:59.673Z,0.03
2018-01-14T18:19:27.191Z,-0.03
2018-01-14T18:21:54.861Z,-0.04
2018-01-14T18:24:22.395Z,-0.04
2018-01-14T18:26:50.022Z,-0.16
2018-01-14T18:29:17.542Z,0.06
2018-01-14T18:31:45.092Z,0.05
2018-01-14T18:34:12.712Z,0.10
2018-01-14T18:36:40.317Z,0.09
2018-01-14T18:39:07.892Z,0.03
2018-01-14T18:41:35.442Z,-0.16
2018-01-14T18:44:02.994Z,-0.12
2018-01-14T18:46:30.894Z,-0.07
2018-01-14T18:48:58.526Z,0.00
2018-01-14T18:51:26.076Z,0.03
2018-01-14T18:53:53.665Z,-0.04
2018-01-14T18:56:21.182Z,-0.04
2018-01-14T18:58:49.060Z,0.12
2018-01-14T19:01:16.580Z,0.04
2018-01-14T19:03:45.079Z,0.01
2018-01-14T19:06:12.661Z,0.04
2018-01-14T19:08:40.217Z,-0.05
2018-01-14T19:11:08.131Z,-0.10
2018-01-14T19:13:35.644Z,-0.10
2018-01-14T19:16:03.193Z,-0.08
2018-01-14T19:18:30.780Z,-0.07
2018-01-14T19:20:58.413Z,-0.19
2018-01-14T19:23:25.957Z,-0.21
2018-01-14T19:25:53.640Z,-0.25
2018-01-14T19:28:21.208Z,-0.24
2018-01-14T19:30:48.726Z,-0.18
2018-01-14T19:33:16.274Z,-0.15
2018-01-14T19:35:43.797Z,-0.08
2018-01-14T19:38:11.358Z,-0.18
2018-01-14T19:40:38.904Z,-0.20
2018-01-14T19:43:06.449Z,-0.23
2018-01-14T19:45:34.358Z,-0.27
2018-01-14T19:48:02.094Z,-0.33
2018-01-14T19:50:29.632Z,-0.26
2018-01-14T19:52:57.198Z,-0.34
2018-01-14T19:55:24.925Z,-0.37
2018-01-14T19:57:52.725Z,-0.28
2018-01-14T20:00:20.335Z,-0.37
2018-01-14T20:02:48.419Z,-0.46
2018-01-14T20:05:16.261Z,-0.39
2018-01-14T20:07:44.148Z,-0.46
2018-01-14T20:10:11.819Z,-0.66
2018-01-14T20:12:39.557Z,-0.61
2018-01-14T20:15:07.373Z,-0.65
2018-01-14T20:17:35.067Z,-0.74
2018-01-14T20:20:02.783Z,-0.61
2018-01-14T20:22:30.381Z,-0.80
2018-01-14T20:24:57.948Z,-0.89
2018-01-14T20:27:25.591Z,-0.93
2018-01-14T20:29:53.148Z,-0.96
2018-01-14T20:32:20.790Z,-1.04
2018-01-14T20:34:48.395Z,-0.89
2018-01-14T20:37:15.939Z,-0.69
2018-01-14T20:39:43.808Z,-0.85
2018-01-14T20:42:11.503Z,-1.02
2018-01-14T20:44:44.598Z,-1.00
2018-01-14T20:47:12.181Z,-1.06
2018-01-14T20:49:39.736Z,-0.99
2018-01-14T20:52:07.255Z,-1.08
2018-01-14T20:54:34.853Z,-1.02
2018-01-14T20:57:02.421Z,-1.05
2018-01-14T20:59:29.976Z,-0.93
2018-01-14T21:01:57.514Z,-0.86
2018-01-14T21:04:31.084Z,-0.97
2018-01-14T21:06:58.697Z,-0.91
2018-01-14T21:09:26.258Z,-1.02
2018-01-14T21:11:53.861Z,-0.90
2018-01-14T21:14:21.424Z,-0.94
2018-01-14T21:16:48.944Z,-0.87
2018-01-14T21:19:16.574Z,-0.84
2018-01-14T21:21:44.194Z,-0.84
2018-01-14T21:24:11.774Z,-0.92
2018-01-14T21:26:39.355Z,-0.80
2018-01-14T21:29:06.876Z,-0.96
2018-01-14T21:31:34.462Z,-1.06
2018-01-14T21:34:02.003Z,-0.96
2018-01-14T21:36:29.585Z,-0.99
2018-01-14T21:38:57.137Z,-1.04
2018-01-14T21:41:24.723Z,-0.95
2018-01-14T21:43:52.268Z,-0.97
2018-01-14T21:46:19.844Z,-1.06
2018-01-14T21:48:47.397Z,-1.07
2018-01-14T21:51:14.923Z,-0.94
2018-01-14T21:53:42.543Z,-0.93
2018-01-14T21:56:10.110Z,-0.93
2018-01-14T21:58:37.668Z,-1.02
2018-01-14T22:01:05.244Z,-1.02
2018-01-14T22:03:32.762Z,-0.94
2018-01-14T22:06:00.299Z,-0.90
2018-01-14T22:08:27.842Z,-0.88
2018-01-14T22:10:55.392Z,-1.06
2018-01-14T22:13:22.944Z,-1.19
2018-01-14T22:15:50.860Z,-0.93
2018-01-14T22:18:18.424Z,-0.95
2018-01-14T22:20:45.950Z,-1.20
2018-01-14T22:23:13.483Z,-0.99
2018-01-14T22:25:41.027Z,-0.99
2018-01-14T22:28:08.834Z,-1.00
2018-01-14T22:30:36.556Z,-0.97
2018-01-14T22:33:04.266Z,-1.00
2018-01-14T22:35:31.797Z,-1.03
2018-01-14T22:37:59.372Z,-0.86
2018-01-14T22:40:26.955Z,-1.03
2018-01-14T22:42:54.553Z,-0.96
2018-01-14T22:45:22.105Z,-0.94
2018-01-14T22:47:49.685Z,-0.98
2018-01-14T22:50:17.217Z,-1.01
2018-01-14T22:52:44.788Z,-1.12
2018-01-14T22:55:12.328Z,-1.05
2018-01-14T22:57:40.106Z,-1.11
2018-01-14T23:00:07.724Z,-1.27
2018-01-14T23:02:35.294Z,-1.37
2018-01-14T23:05:02.835Z,-1.32
2018-01-14T23:07:30.440Z,-1.06
2018-01-14T23:09:57.998Z,-1.14
2018-01-14T23:12:25.570Z,-1.32
2018-01-14T23:14:58.903Z,-1.36
2018-01-14T23:17:26.515Z,-1.41
2018-01-14T23:19:54.061Z,-1.45
2018-01-14T23:22:21.648Z,-1.32
2018-01-14T23:24:49.276Z,-1.25
2018-01-14T23:27:16.823Z,-1.35
2018-01-14T23:29:44.495Z,-1.26
2018-01-14T23:32:12.068Z,-1.29
2018-01-14T23:34:39.620Z,-1.18
2018-01-14T23:37:07.187Z,-1.33
2018-01-14T23:39:34.739Z,-1.27
2018-01-14T23:42:02.282Z,-1.38
2018-01-14T23:44:29.865Z,-1.41
2018-01-14T23:46:57.445Z,-1.37
2018-01-14T23:49:25.080Z,-1.26
2018-01-14T23:51:52.669Z,-1.22
2018-01-14T23:54:20.268Z,-1.12
2018-01-14T23:56:47.797Z,-1.12
2018-01-14T23:59:15.346Z,-1.21
